createdAt,value
2018-11-02T04:01:00.710Z,99.99
2018-11-02T04:02:01.331Z,99.99
2018-11-02T04:03:01.221Z,99.99
2018-11-02T04:04:02.266Z,99.99
2018-11-02T04:04:59.362Z,99.99
2018-11-02T04:05:59.509Z,99.99
2018-11-02T04:06:59.670Z,99.99
2018-11-02T04:08:00.061Z,99.99
2018-11-02T04:09:00.067Z,99.99
2018-11-02T04:10:00.196Z,99.99
2018-11-02T04:11:00.367Z,99.99
2018-11-02T04:12:00.497Z,99.99
2018-11-02T04:13:00.660Z,99.99
2018-11-02T04:14:00.831Z,99.99
2018-11-02T04:15:00.965Z,99.99
2018-11-02T04:16:01.271Z,99.99
2018-11-02T04:17:01.453Z,99.99
2018-11-02T04:18:01.580Z,99.99
2018-11-02T04:19:01.708Z,99.99
2018-11-02T04:20:02.049Z,99.99
2018-11-02T04:21:02.074Z,99.99
2018-11-02T04:22:02.246Z,99.99
2018-11-02T04:23:02.380Z,99.99
2018-11-02T04:24:02.515Z,99.99
2018-11-02T04:25:02.912Z,99.99
2018-11-02T04:26:02.861Z,99.99
2018-11-02T04:27:03.180Z,99.99
2018-11-02T04:28:03.319Z,99.99
2018-11-02T04:29:03.371Z,99.99
2018-11-02T04:30:03.716Z,99.99
2018-11-02T04:31:03.759Z,99.99
2018-11-02T04:32:03.992Z,99.99
2018-11-02T04:33:04.157Z,99.99
2018-11-02T04:34:04.229Z,99.99
2018-11-02T04:35:04.457Z,99.99
2018-11-02T04:36:04.580Z,99.99
2018-11-02T04:37:04.898Z,99.99
2018-11-02T04:38:04.861Z,99.99
2018-11-02T04:39:05.040Z,99.99
2018-11-02T04:40:05.159Z,99.99
2018-11-02T04:41:05.349Z,99.99
2018-11-02T04:42:05.530Z,99.99
2018-11-02T04:43:05.717Z,99.99
2018-11-02T04:44:05.848Z,99.99
2018-11-02T04:45:06.022Z,99.99
2018-11-02T04:46:06.214Z,99.99
2018-11-02T04:47:06.434Z,99.99
2018-11-02T04:48:06.515Z,99.99
2018-11-02T04:49:06.716Z,99.99
2018-11-02T04:50:06.907Z,99.99
2018-11-02T04:51:07.235Z,99.99
2018-11-02T04:52:07.218Z,99.99
2018-11-02T04:53:07.408Z,99.99
2018-11-02T04:54:07.499Z,99.99
2018-11-02T04:55:07.719Z,99.99
2018-11-02T04:56:07.884Z,99.99
2018-11-02T04:57:07.994Z,99.99
2018-11-02T04:58:08.203Z,99.99
2018-11-02T04:59:08.914Z,99.99
2018-11-02T05:00:08.644Z,99.99
2018-11-02T05:01:08.905Z,99.99
2018-11-02T05:02:09.042Z,99.99
2018-11-02T05:03:09.255Z,99.99
2018-11-02T05:04:09.315Z,99.99
2018-11-02T05:05:09.547Z,99.99
2018-11-02T05:06:09.714Z,99.99
2018-11-02T05:07:09.905Z,99.99
2018-11-02T05:08:10.087Z,99.99
2018-11-02T05:09:10.253Z,99.99
2018-11-02T05:10:10.427Z,99.99
2018-11-02T05:11:10.583Z,99.99
2018-11-02T05:12:10.784Z,99.99
2018-11-02T05:13:10.938Z,99.99
2018-11-02T05:14:11.052Z,99.99
2018-11-02T05:15:11.423Z,99.99
2018-11-02T05:16:11.566Z,99.99
2018-11-02T05:17:11.780Z,99.99
2018-11-02T05:18:11.992Z,99.99
2018-11-02T05:19:12.247Z,99.99
2018-11-02T05:20:12.331Z,99.99
2018-11-02T05:21:12.552Z,99.99
2018-11-02T05:22:12.675Z,99.99
2018-11-02T05:23:12.880Z,99.99
2018-11-02T05:24:13.094Z,99.99
2018-11-02T05:25:13.200Z,99.99
2018-11-02T05:26:13.328Z,99.99
2018-11-02T05:27:13.584Z,99.99
2018-11-02T05:28:13.629Z,99.99
2018-11-02T05:29:13.818Z,99.99
2018-11-02T05:30:13.987Z,99.99
2018-11-02T05:31:14.143Z,99.99
2018-11-02T05:32:14.286Z,99.99
2018-11-02T05:33:14.482Z,99.99
2018-11-02T05:34:14.609Z,99.99
2018-11-02T05:35:14.737Z,99.99
2018-11-02T05:36:14.971Z,99.99
2018-11-02T05:37:15.119Z,99.99
2018-11-02T05:38:15.291Z,99.99
2018-11-02T05:39:15.535Z,99.99
2018-11-02T05:40:15.730Z,99.99
2018-11-02T05:41:15.834Z,99.99
2018-11-02T05:42:16.035Z,99.99
2018-11-02T05:43:16.233Z,99.99
2018-11-02T05:44:16.365Z,99.99
2018-11-02T05:45:16.547Z,99.99
2018-11-02T05:46:16.666Z,99.99
2018-11-02T05:47:16.932Z,99.99
2018-11-02T05:48:17.051Z,99.99
2018-11-02T05:49:17.236Z,99.99
2018-11-02T05:50:17.404Z,99.99
2018-11-02T05:51:17.529Z,99.99
2018-11-02T05:52:17.745Z,99.99
2018-11-02T05:53:17.874Z,99.99
2018-11-02T05:54:18.121Z,99.99
2018-11-02T05:55:18.127Z,99.99
2018-11-02T05:56:18.353Z,99.99
2018-11-02T05:57:18.476Z,99.99
2018-11-02T05:58:18.676Z,99.99
2018-11-02T05:59:18.868Z,99.99
2018-11-02T06:00:18.995Z,99.99
2018-11-02T06:01:19.717Z,99.99
2018-11-02T06:02:19.307Z,99.99
2018-11-02T06:03:19.534Z,99.99
2018-11-02T06:04:19.608Z,99.99
2018-11-02T06:05:19.826Z,99.99
2018-11-02T06:06:20.038Z,99.99
2018-11-02T06:07:20.236Z,99.99
2018-11-02T06:08:20.502Z,99.99
2018-11-02T06:09:20.484Z,99.99
2018-11-02T06:10:20.672Z,99.99
2018-11-02T06:11:20.807Z,99.99
2018-11-02T06:12:21.027Z,99.99
2018-11-02T06:13:21.255Z,99.99
2018-11-02T06:14:21.361Z,99.99
2018-11-02T06:15:21.528Z,99.99
2018-11-02T06:16:21.667Z,99.99
2018-11-02T06:17:21.906Z,99.99
2018-11-02T06:18:21.998Z,99.99
2018-11-02T06:19:22.213Z,99.99
2018-11-02T06:20:22.362Z,99.99
2018-11-02T06:21:22.570Z,99.99
2018-11-02T06:22:22.602Z,99.99
2018-11-02T06:23:22.799Z,99.99
2018-11-02T06:24:23.000Z,99.99
2018-11-02T06:25:23.149Z,99.99
2018-11-02T06:26:23.426Z,99.99
2018-11-02T06:27:23.567Z,99.99
2018-11-02T06:28:23.751Z,99.99
2018-11-02T06:29:23.829Z,99.99
2018-11-02T06:30:23.997Z,99.99
2018-11-02T06:31:24.125Z,99.99
2018-11-02T06:32:25.166Z,99.99
2018-11-02T06:33:28.807Z,99.99
2018-11-02T06:34:25.914Z,99.99
2018-11-02T06:35:25.545Z,99.99
2018-11-02T06:36:26.515Z,99.99
2018-11-02T06:37:25.982Z,99.99
2018-11-02T06:38:26.611Z,99.99
2018-11-02T06:39:26.875Z,99.99
2018-11-02T06:40:28.339Z,99.99
2018-11-02T06:41:27.254Z,99.99
2018-11-02T06:42:27.723Z,99.99
2018-11-02T06:43:27.258Z,99.99
2018-11-02T06:44:26.267Z,99.99
2018-11-02T06:45:26.339Z,99.99
2018-11-02T06:46:26.518Z,99.99
2018-11-02T06:47:26.767Z,99.99
2018-11-02T06:48:26.886Z,99.99
2018-11-02T06:49:27.139Z,99.99
2018-11-02T06:50:27.182Z,99.99
2018-11-02T06:51:27.346Z,99.99
2018-11-02T06:52:27.494Z,99.99
2018-11-02T06:53:27.665Z,99.99
2018-11-02T06:54:27.919Z,99.99
2018-11-02T06:55:28.129Z,99.99
2018-11-02T06:56:28.193Z,99.99
2018-11-02T06:57:28.896Z,99.99
2018-11-02T06:58:28.674Z,99.99
2018-11-02T06:59:29.447Z,99.99
2018-11-02T07:00:29.058Z,99.99
2018-11-02T07:01:29.220Z,99.99
2018-11-02T07:02:29.569Z,99.99
2018-11-02T07:03:29.820Z,99.99
2018-11-02T07:04:31.397Z,99.99
2018-11-02T07:05:30.036Z,99.99
2018-11-02T07:06:30.440Z,99.79
2018-11-02T07:07:30.623Z,99.98
2018-11-02T07:08:30.761Z,99.99
2018-11-02T07:09:32.370Z,99.99
2018-11-02T07:10:31.400Z,99.99
2018-11-02T07:13:06.958Z,99.89
2018-11-02T07:14:13.443Z,99.89
2018-11-02T07:15:05.422Z,99.99
2018-11-02T07:16:06.035Z,99.69
2018-11-02T07:17:07.220Z,99.99
2018-11-02T07:18:18.922Z,99.99
2018-11-02T07:19:08.251Z,99.99
2018-11-02T07:29:35.909Z,99.60
2018-11-02T07:30:38.942Z,98.94
2018-11-02T07:31:36.859Z,99.22
2018-11-02T07:32:39.799Z,99.51
2018-11-02T07:33:38.746Z,99.41
2018-11-02T07:34:36.853Z,98.65
2018-11-02T07:35:36.682Z,98.46
2018-11-02T07:37:35.456Z,98.27
2018-11-02T07:38:35.148Z,98.13
2018-11-02T07:39:35.350Z,98.41
2018-11-02T07:40:35.154Z,97.56
2018-11-02T07:41:35.490Z,97.65
2018-11-02T07:42:35.821Z,97.56
2018-11-02T07:43:36.243Z,97.27
2018-11-02T07:44:36.170Z,97.36
2018-11-02T07:46:37.107Z,97.84
2018-11-02T07:47:36.647Z,97.56
2018-11-02T07:48:36.901Z,96.98
2018-11-02T07:49:37.102Z,96.41
2018-11-02T07:50:37.636Z,96.70
2018-11-02T07:51:38.826Z,96.60
2018-11-02T07:52:38.371Z,96.03
2018-11-02T07:53:38.172Z,96.22
2018-11-02T07:54:38.630Z,96.22
2018-11-02T07:55:38.857Z,96.03
2018-11-02T07:57:00.373Z,95.75
2018-11-02T07:57:41.047Z,95.84
2018-11-02T07:58:38.814Z,94.84
2018-11-02T07:59:39.529Z,95.22
2018-11-02T08:00:39.848Z,95.32
2018-11-02T08:01:39.930Z,94.17
2018-11-02T08:02:39.279Z,93.22
2018-11-02T08:04:39.639Z,92.93
2018-11-02T08:05:40.088Z,91.98
2018-11-02T08:06:40.132Z,92.41
2018-11-02T08:07:40.500Z,92.03
2018-11-02T08:08:40.380Z,91.83
2018-11-02T08:09:40.665Z,91.55
2018-11-02T08:10:40.818Z,91.55
2018-11-02T08:11:40.954Z,91.64
2018-11-02T08:12:41.078Z,91.46
2018-11-02T08:13:41.437Z,91.64
2018-11-02T08:14:41.207Z,91.64
2018-11-02T08:15:41.413Z,91.27
2018-11-02T08:16:41.709Z,91.07
2018-11-02T08:17:41.814Z,90.69
2018-11-02T08:18:42.046Z,90.98
2018-11-02T08:19:41.972Z,91.27
2018-11-02T08:24:18.450Z,91.07
2018-11-02T08:25:18.744Z,91.17
2018-11-02T08:28:19.843Z,91.64
2018-11-02T08:29:20.012Z,91.98
2018-11-02T08:30:22.310Z,91.69
2018-11-02T08:31:24.139Z,91.60
2018-11-02T08:32:22.088Z,91.12
2018-11-02T08:33:20.997Z,89.40
2018-11-02T08:34:18.873Z,89.12
2018-11-02T08:35:19.541Z,89.21
2018-11-02T08:36:20.059Z,88.73
2018-11-02T08:37:19.335Z,88.64
2018-11-02T08:38:19.364Z,89.02
2018-11-02T08:39:20.114Z,88.78
2018-11-02T08:40:22.487Z,88.87
2018-11-02T08:41:20.717Z,89.45
2018-11-02T08:42:22.026Z,88.87
2018-11-02T08:48:02.773Z,87.82
2018-11-02T08:51:36.759Z,87.10
2018-11-02T08:52:37.678Z,84.89
2018-11-02T08:54:44.316Z,77.31
2018-11-02T09:04:37.220Z,67.38
2018-11-02T09:04:53.157Z,67.96
2018-11-02T09:06:35.927Z,68.12
2018-11-02T09:22:28.656Z,60.49
2018-11-02T09:28:03.970Z,63.06
2018-11-02T09:29:04.889Z,64.85
2018-11-02T09:30:10.089Z,63.70
2018-11-02T09:31:08.400Z,63.86
2018-11-02T09:32:08.111Z,64.82
2018-11-02T09:33:05.135Z,65.49
2018-11-02T09:34:07.297Z,65.69
2018-11-02T09:35:03.598Z,66.67
2018-11-02T09:36:03.462Z,66.84
2018-11-02T09:37:03.459Z,65.84
2018-11-02T09:38:04.121Z,63.95
2018-11-02T09:39:09.424Z,62.03
2018-11-02T10:27:11.307Z,79.88
2018-11-02T10:28:21.687Z,80.46
2018-11-02T10:29:06.348Z,80.84
2018-11-02T10:50:11.443Z,79.56
2018-11-02T10:52:21.512Z,79.46
2018-11-02T10:53:21.498Z,79.85
2018-11-02T12:01:38.493Z,69.35
2018-11-02T12:13:53.780Z,71.07
2018-11-02T13:07:05.975Z,72.33
2018-11-02T13:08:06.318Z,73.00
2018-11-02T13:14:08.940Z,72.14
2018-11-02T13:14:51.200Z,71.95
2018-11-02T13:18:03.955Z,72.75
2018-11-02T13:22:56.477Z,71.80
2018-11-02T13:23:46.649Z,72.85
2018-11-02T13:24:46.202Z,72.66
2018-11-02T15:40:14.333Z,83.34
2018-11-02T15:41:16.886Z,83.53
2018-11-02T15:42:37.321Z,84.00
2018-11-02T15:44:16.808Z,83.81
2018-11-02T15:45:18.614Z,84.16
2018-11-02T15:46:15.654Z,84.72
2018-11-02T15:47:15.612Z,84.06
2018-11-02T15:48:16.336Z,84.06
2018-11-02T15:49:16.441Z,84.25
2018-11-02T15:50:27.430Z,84.06
2018-11-02T15:51:17.430Z,84.25
2018-11-02T15:52:23.784Z,84.34
2018-11-02T15:53:17.922Z,84.72
2018-11-02T15:54:17.778Z,84.34
2018-11-02T15:55:19.633Z,84.34
2018-11-02T15:56:37.929Z,84.53
2018-11-02T15:57:38.671Z,84.44
2018-11-02T15:58:30.364Z,85.01
2018-11-02T15:59:23.885Z,85.30
2018-11-02T16:00:17.733Z,85.49
2018-11-02T16:01:17.760Z,85.58
2018-11-02T16:02:15.996Z,85.30
2018-11-02T16:03:15.675Z,85.39
2018-11-02T16:04:16.056Z,85.21
2018-11-02T16:05:15.905Z,86.02
2018-11-02T16:06:16.109Z,86.40
2018-11-02T16:07:16.308Z,85.93
2018-11-02T16:08:16.483Z,86.40
2018-11-02T16:09:16.571Z,86.98
2018-11-02T16:10:16.781Z,87.54
2018-11-02T16:11:16.964Z,87.93
2018-11-02T16:12:17.176Z,87.74
2018-11-02T16:13:17.279Z,87.54
2018-11-02T16:14:17.550Z,87.45
2018-11-02T16:15:17.537Z,88.26
2018-11-02T16:16:17.717Z,88.12
2018-11-02T16:17:18.183Z,88.21
2018-11-02T16:18:18.038Z,88.36
2018-11-02T16:19:18.215Z,88.74
2018-11-02T16:20:18.640Z,88.84
2018-11-02T16:21:18.581Z,88.45
2018-11-02T16:22:18.661Z,89.03
2018-11-02T16:23:18.877Z,88.74
2018-11-02T16:24:19.033Z,88.74
2018-11-02T16:25:19.178Z,88.84
2018-11-02T16:26:19.449Z,88.74
2018-11-02T16:27:19.514Z,88.64
2018-11-02T16:28:19.724Z,89.22
2018-11-02T16:29:19.807Z,89.03
2018-11-02T16:30:20.025Z,89.50
2018-11-02T16:31:20.194Z,89.79
2018-11-02T16:32:21.097Z,89.69
2018-11-02T16:33:20.582Z,89.69
2018-11-02T16:34:20.807Z,90.70
2018-11-02T16:35:20.924Z,90.70
2018-11-02T16:36:21.061Z,90.60
2018-11-02T16:37:21.253Z,90.98
2018-11-02T16:38:21.470Z,91.17
2018-11-02T16:39:21.574Z,90.89
2018-11-02T16:40:21.774Z,90.89
2018-11-02T16:41:21.956Z,91.17
2018-11-02T16:42:22.103Z,91.17
2018-11-02T16:43:22.242Z,91.55
2018-11-02T16:44:22.465Z,91.55
2018-11-02T16:45:22.526Z,91.55
2018-11-02T16:46:22.747Z,91.65
2018-11-02T16:47:22.880Z,91.94
2018-11-02T16:48:23.055Z,92.46
2018-11-02T16:49:23.190Z,92.74
2018-11-02T16:50:23.461Z,93.41
2018-11-02T16:51:23.559Z,93.03
2018-11-02T16:52:23.700Z,93.41
2018-11-02T16:53:23.817Z,92.55
2018-11-02T16:54:24.075Z,93.70
2018-11-02T16:55:24.267Z,93.32
2018-11-02T16:56:24.379Z,93.32
2018-11-02T16:57:24.649Z,93.70
2018-11-02T16:58:24.617Z,93.89
2018-11-02T16:59:24.879Z,93.60
2018-11-02T17:00:24.979Z,93.70
2018-11-02T17:01:25.157Z,93.79
2018-11-02T17:02:28.235Z,94.56
2018-11-02T17:03:26.394Z,94.56
2018-11-02T17:04:25.947Z,94.93
2018-11-02T17:07:40.748Z,95.32
2018-11-02T17:16:24.390Z,96.31
2018-11-02T17:17:24.442Z,95.94
2018-11-02T17:18:24.840Z,96.03
2018-11-02T17:19:25.116Z,95.84
2018-11-02T17:20:54.666Z,96.03
2018-11-02T17:21:34.373Z,96.03
2018-11-02T17:22:24.775Z,95.94
2018-11-02T17:23:26.153Z,95.75
2018-11-02T17:35:05.919Z,96.70
2018-11-02T17:35:56.680Z,96.12
2018-11-02T17:36:57.570Z,96.51
2018-11-02T17:38:04.728Z,95.94
2018-11-02T17:38:57.102Z,95.75
2018-11-02T17:39:56.701Z,96.31
2018-11-02T17:40:55.310Z,95.75
2018-11-02T17:41:55.229Z,96.12
2018-11-02T17:42:55.322Z,96.22
2018-11-02T17:43:55.394Z,96.22
2018-11-02T17:44:56.118Z,96.60
2018-11-02T17:48:22.977Z,96.22
2018-11-02T17:49:10.164Z,97.36
2018-11-02T17:51:08.002Z,97.08
2018-11-02T17:52:07.952Z,96.89
2018-11-02T17:53:08.200Z,96.31
2018-11-02T17:54:07.057Z,96.60
2018-11-02T17:55:06.399Z,96.22
2018-11-02T17:56:06.212Z,96.79
2018-11-02T17:57:06.359Z,97.08
2018-11-02T17:58:18.290Z,96.89
2018-11-02T18:03:14.853Z,97.27
2018-11-02T18:03:46.413Z,97.60
2018-11-02T18:04:47.314Z,97.41
2018-11-02T18:05:46.432Z,97.50
2018-11-02T18:06:45.792Z,96.74
2018-11-02T18:08:07.766Z,97.13
2018-11-02T18:14:31.480Z,97.45
2018-11-02T18:15:32.659Z,98.31
2018-11-02T18:16:35.227Z,98.03
2018-11-02T18:17:39.815Z,98.12
2018-11-02T18:18:38.336Z,98.12
2018-11-02T18:22:07.995Z,98.41
2018-11-02T18:23:06.457Z,98.69
2018-11-02T18:24:04.570Z,99.45
2018-11-02T18:25:15.699Z,99.64
2018-11-02T18:26:14.226Z,99.64
2018-11-02T18:27:05.072Z,99.99
2018-11-02T18:28:05.466Z,99.74
2018-11-02T18:29:05.532Z,99.99
2018-11-02T18:30:03.958Z,99.99
2018-11-02T18:31:03.639Z,99.99
2018-11-02T18:32:04.398Z,99.99
2018-11-02T18:33:04.129Z,99.99
2018-11-02T18:34:04.156Z,99.99
2018-11-02T18:35:04.309Z,99.99
2018-11-02T18:36:05.345Z,99.99
2018-11-02T18:37:05.451Z,99.99
2018-11-02T18:38:04.778Z,99.99
2018-11-02T18:39:05.157Z,99.99
2018-11-02T18:40:05.350Z,99.99
2018-11-02T18:41:05.315Z,99.99
2018-11-02T18:42:05.468Z,99.99
2018-11-02T18:43:07.132Z,99.99
2018-11-02T18:44:17.816Z,99.99
2018-11-02T18:45:09.591Z,99.99
2018-11-02T18:46:14.800Z,99.99
2018-11-02T18:48:14.445Z,99.99
2018-11-02T18:49:14.226Z,99.99
2018-11-02T18:50:10.016Z,99.99
2018-11-02T18:51:09.537Z,99.99
2018-11-02T18:52:09.496Z,99.99
2018-11-02T18:53:08.647Z,99.99
2018-11-02T18:54:08.228Z,99.99
2018-11-02T18:55:07.807Z,99.99
2018-11-02T18:56:08.375Z,99.99
2018-11-02T18:57:08.466Z,99.99
2018-11-02T18:58:09.538Z,99.99
2018-11-02T18:59:08.886Z,99.99
2018-11-02T19:00:19.839Z,99.99
2018-11-02T19:01:09.980Z,99.99
2018-11-02T19:02:11.040Z,99.99
2018-11-02T19:03:11.324Z,99.99
2018-11-02T19:04:09.211Z,99.84
2018-11-02T19:05:09.107Z,99.74
2018-11-02T19:06:09.267Z,99.99
2018-11-02T19:07:09.461Z,99.99
2018-11-02T19:08:09.593Z,99.99
2018-11-02T19:09:09.736Z,99.99
2018-11-02T19:10:09.858Z,99.99
2018-11-02T19:11:10.002Z,99.99
2018-11-02T19:12:10.838Z,99.99
2018-11-02T19:13:10.403Z,99.99
2018-11-02T19:14:10.504Z,99.99
2018-11-02T19:15:10.725Z,99.99
2018-11-02T19:16:10.883Z,99.99
2018-11-02T19:17:11.053Z,99.99
2018-11-02T19:18:11.139Z,99.99
2018-11-02T19:19:11.396Z,99.99
2018-11-02T19:20:11.527Z,99.99
2018-11-02T19:21:11.745Z,99.99
2018-11-02T19:22:11.905Z,99.99
2018-11-02T19:23:12.113Z,99.84
2018-11-02T19:24:12.141Z,99.74
2018-11-02T19:25:12.351Z,99.74
2018-11-02T19:26:12.481Z,98.88
2018-11-02T19:27:12.697Z,99.64
2018-11-02T19:28:12.786Z,99.16
2018-11-02T19:29:12.978Z,99.64
2018-11-02T19:30:13.153Z,99.69
2018-11-02T19:31:13.323Z,99.99
2018-11-02T19:32:13.508Z,99.99
2018-11-02T19:33:13.733Z,99.99
2018-11-02T19:34:13.923Z,99.99
2018-11-02T19:35:14.143Z,99.99
2018-11-02T19:36:14.191Z,99.99
2018-11-02T19:37:14.373Z,99.99
2018-11-02T19:38:14.676Z,99.99
2018-11-02T19:39:14.685Z,99.99
2018-11-02T19:40:14.866Z,99.99
2018-11-02T19:41:15.088Z,99.99
2018-11-02T19:42:15.244Z,99.99
2018-11-02T19:43:15.440Z,99.99
2018-11-02T19:44:15.683Z,99.99
2018-11-02T19:45:15.752Z,99.99
2018-11-02T19:46:15.936Z,99.99
2018-11-02T19:47:16.031Z,99.99
2018-11-02T19:48:16.145Z,99.97
2018-11-02T19:49:16.307Z,99.88
2018-11-02T19:50:16.486Z,99.99
2018-11-02T19:51:16.776Z,99.99
2018-11-02T19:52:16.889Z,99.99
2018-11-02T19:53:17.016Z,99.99
2018-11-02T19:54:17.146Z,99.99
2018-11-02T19:55:17.397Z,99.99
2018-11-02T19:56:17.499Z,99.99
2018-11-02T19:57:17.604Z,99.99
2018-11-02T19:58:18.009Z,99.99
2018-11-02T19:59:17.987Z,99.99
2018-11-02T20:00:18.120Z,99.99
2018-11-02T20:01:18.221Z,99.99
2018-11-02T20:02:18.932Z,99.99
2018-11-02T20:03:19.153Z,99.99
2018-11-02T20:04:19.125Z,99.99
2018-11-02T20:05:19.410Z,99.99
2018-11-02T20:06:20.382Z,99.99
2018-11-02T20:07:19.746Z,99.99
2018-11-02T20:08:19.687Z,99.99
2018-11-02T20:09:20.104Z,99.99
2018-11-02T20:10:20.275Z,99.99
2018-11-02T20:11:20.083Z,99.99
2018-11-02T20:12:20.407Z,99.99
2018-11-02T20:13:20.494Z,99.99
2018-11-02T20:14:22.138Z,99.99
2018-11-02T20:15:21.387Z,99.99
2018-11-02T20:16:21.424Z,99.99
2018-11-02T20:17:20.897Z,99.99
2018-11-02T20:18:21.263Z,99.99
2018-11-02T20:19:21.294Z,99.99
2018-11-02T20:20:21.447Z,99.99
2018-11-02T20:21:21.663Z,99.99
2018-11-02T20:22:21.768Z,99.99
2018-11-02T20:23:21.865Z,99.99
2018-11-02T20:24:22.073Z,99.99
2018-11-02T20:25:22.274Z,99.99
2018-11-02T20:26:22.440Z,99.99
2018-11-02T20:27:22.601Z,99.99
2018-11-02T20:28:22.771Z,99.99
2018-11-02T20:29:23.304Z,99.99
2018-11-02T20:30:23.009Z,99.99
2018-11-02T20:31:23.205Z,99.99
2018-11-02T20:32:23.436Z,99.99
2018-11-02T20:33:23.691Z,99.99
2018-11-02T20:34:23.749Z,99.99
2018-11-02T20:35:23.862Z,99.99
2018-11-02T20:36:24.044Z,99.99
2018-11-02T20:37:24.308Z,99.99
2018-11-02T20:38:24.590Z,99.99
2018-11-02T20:39:24.722Z,99.99
2018-11-02T20:40:24.844Z,99.99
2018-11-02T20:41:25.036Z,99.99
2018-11-02T20:42:25.173Z,99.99
2018-11-02T20:43:25.415Z,99.99
2018-11-02T20:44:25.721Z,99.99
2018-11-02T20:45:26.258Z,99.99
2018-11-02T20:46:28.599Z,99.99
2018-11-02T20:47:27.250Z,99.99
2018-11-02T20:48:26.210Z,99.99
2018-11-02T20:49:26.488Z,99.99
2018-11-02T20:50:27.150Z,99.99
2018-11-02T20:52:27.048Z,99.99
2018-11-02T20:53:27.754Z,99.99
2018-11-02T20:54:27.580Z,99.99
2018-11-02T20:55:27.619Z,99.99
2018-11-02T20:56:28.222Z,99.99
2018-11-02T20:57:29.075Z,99.99
2018-11-02T20:58:28.456Z,99.99
2018-11-02T21:01:10.392Z,99.99
2018-11-02T21:02:11.949Z,99.99
2018-11-02T21:03:10.789Z,99.99
2018-11-02T21:04:10.826Z,99.99
2018-11-02T21:05:11.072Z,99.99
2018-11-02T21:06:11.498Z,99.99
2018-11-02T21:07:11.588Z,99.99
2018-11-02T21:08:13.128Z,99.99
2018-11-02T21:09:11.821Z,99.99
2018-11-02T21:11:12.618Z,99.99
2018-11-02T21:13:11.579Z,99.99
2018-11-02T21:14:10.601Z,99.99
2018-11-02T21:15:10.671Z,99.99
2018-11-02T21:16:11.059Z,99.99
2018-11-02T21:17:11.269Z,99.99
2018-11-02T21:18:11.332Z,99.99
2018-11-02T21:19:11.333Z,99.99
2018-11-02T21:20:11.722Z,99.99
2018-11-02T21:21:11.905Z,99.99
2018-11-02T21:22:13.012Z,99.99
2018-11-02T21:23:12.383Z,99.99
2018-11-02T21:24:12.333Z,99.99
2018-11-02T21:25:12.722Z,99.99
2018-11-02T21:26:12.867Z,99.99
2018-11-02T21:27:12.912Z,99.99
2018-11-02T21:28:13.167Z,99.99
2018-11-02T21:29:13.126Z,99.99
2018-11-02T21:30:13.563Z,99.99
2018-11-02T21:31:13.598Z,99.99
2018-11-02T21:32:13.834Z,99.99
2018-11-02T21:33:13.808Z,99.99
2018-11-02T21:34:14.262Z,99.99
2018-11-02T21:35:14.427Z,99.99
2018-11-02T21:36:14.460Z,99.99
2018-11-02T21:37:14.605Z,99.99
2018-11-02T21:38:15.014Z,99.99
2018-11-02T21:39:14.996Z,99.99
2018-11-02T21:40:15.066Z,99.99
2018-11-02T21:41:15.286Z,99.99
2018-11-02T21:42:15.610Z,99.99
2018-11-02T21:43:15.777Z,99.99
2018-11-02T21:44:15.929Z,99.99
2018-11-02T21:45:16.063Z,99.99
2018-11-02T21:46:16.264Z,99.99
2018-11-02T21:47:16.129Z,99.99
2018-11-02T21:48:16.441Z,99.99
2018-11-02T21:49:16.596Z,99.99
2018-11-02T21:50:16.889Z,99.99
2018-11-02T21:51:16.980Z,99.99
2018-11-02T21:52:17.109Z,99.99
2018-11-02T21:53:17.359Z,99.99
2018-11-02T21:54:17.488Z,99.99
2018-11-02T21:55:17.678Z,99.99
2018-11-02T21:56:17.957Z,99.99
2018-11-02T21:57:17.955Z,99.99
2018-11-02T21:58:18.296Z,99.99
2018-11-02T21:59:18.467Z,99.99
2018-11-02T22:00:18.667Z,99.99
2018-11-02T22:01:18.719Z,99.99
2018-11-02T22:02:19.545Z,99.99
2018-11-02T22:03:19.175Z,99.99
2018-11-02T22:04:19.198Z,99.99
2018-11-02T22:05:19.508Z,99.99
2018-11-02T22:06:19.657Z,99.99
2018-11-02T22:07:19.895Z,99.99
2018-11-02T22:08:20.026Z,99.99
2018-11-02T22:09:20.318Z,99.99
2018-11-02T22:10:20.453Z,99.99
2018-11-02T22:11:20.547Z,99.99
2018-11-02T22:12:20.709Z,99.99
2018-11-02T22:13:20.898Z,99.99
2018-11-02T22:14:20.969Z,99.99
2018-11-02T22:15:21.259Z,99.99
2018-11-02T22:16:21.415Z,99.99
2018-11-02T22:17:21.670Z,99.99
2018-11-02T22:18:21.750Z,99.99
2018-11-02T22:19:22.166Z,99.99
2018-11-02T22:20:22.253Z,99.99
2018-11-02T22:21:22.417Z,99.99
2018-11-02T22:22:22.435Z,99.99
2018-11-02T22:23:22.661Z,99.99
2018-11-02T22:24:23.035Z,99.99
2018-11-02T22:25:23.114Z,99.99
2018-11-02T22:26:23.279Z,99.99
2018-11-02T22:27:23.293Z,99.99
2018-11-02T22:28:23.656Z,99.99
2018-11-02T22:29:23.838Z,99.99
2018-11-02T22:30:23.876Z,99.99
2018-11-02T22:31:23.985Z,99.99
2018-11-02T22:32:24.284Z,99.99
2018-11-02T22:33:24.274Z,99.99
2018-11-02T22:34:24.468Z,99.99
2018-11-02T22:35:24.882Z,99.99
2018-11-02T22:36:24.973Z,99.99
2018-11-02T22:37:25.127Z,99.99
2018-11-02T22:38:25.468Z,99.99
2018-11-02T22:39:25.506Z,99.99
2018-11-02T22:40:25.685Z,99.99
2018-11-02T22:41:25.827Z,99.99
2018-11-02T22:42:26.060Z,99.99
2018-11-02T22:43:26.255Z,99.99
2018-11-02T22:44:26.495Z,99.99
2018-11-02T22:45:26.506Z,99.99
2018-11-02T22:46:26.611Z,99.99
2018-11-02T22:47:26.945Z,99.99
2018-11-02T22:48:27.206Z,99.99
2018-11-02T22:49:27.160Z,99.99
